地図

経路データ

SID SEASON NUMBER BASIN SUBBASIN NAME ISO_TIME NATURE LAT LON WMO_WIND WMO_PRES WMO_AGENCY TRACK_TYPE DIST2LAND LANDFALL IFLAG USA_AGENCY USA_ATCF_ID USA_LAT USA_LON USA_RECORD USA_STATUS USA_WIND USA_PRES USA_SSHS USA_R34_NE USA_R34_SE USA_R34_SW USA_R34_NW USA_R50_NE USA_R50_SE USA_R50_SW USA_R50_NW USA_R64_NE USA_R64_SE USA_R64_SW USA_R64_NW USA_POCI USA_ROCI USA_RMW USA_EYE TOKYO_LAT TOKYO_LON TOKYO_GRADE TOKYO_WIND TOKYO_PRES TOKYO_R50_DIR TOKYO_R50_LONG TOKYO_R50_SHORT TOKYO_R30_DIR TOKYO_R30_LONG TOKYO_R30_SHORT TOKYO_LAND CMA_LAT CMA_LON CMA_CAT CMA_WIND CMA_PRES HKO_LAT HKO_LON HKO_CAT HKO_WIND HKO_PRES NEWDELHI_LAT NEWDELHI_LON NEWDELHI_GRADE NEWDELHI_WIND NEWDELHI_PRES NEWDELHI_CI NEWDELHI_DP NEWDELHI_POCI REUNION_LAT REUNION_LON REUNION_TYPE REUNION_WIND REUNION_PRES REUNION_TNUM REUNION_CI REUNION_RMW REUNION_R34_NE REUNION_R34_SE REUNION_R34_SW REUNION_R34_NW REUNION_R50_NE REUNION_R50_SE REUNION_R50_SW REUNION_R50_NW REUNION_R64_NE REUNION_R64_SE REUNION_R64_SW REUNION_R64_NW BOM_LAT BOM_LON BOM_TYPE BOM_WIND BOM_PRES BOM_TNUM BOM_CI BOM_RMW BOM_R34_NE BOM_R34_SE BOM_R34_SW BOM_R34_NW BOM_R50_NE BOM_R50_SE BOM_R50_SW BOM_R50_NW BOM_R64_NE BOM_R64_SE BOM_R64_SW BOM_R64_NW BOM_ROCI BOM_POCI BOM_EYE BOM_POS_METHOD BOM_PRES_METHOD NADI_LAT NADI_LON NADI_CAT NADI_WIND NADI_PRES WELLINGTON_LAT WELLINGTON_LON WELLINGTON_WIND WELLINGTON_PRES DS824_LAT DS824_LON DS824_STAGE DS824_WIND DS824_PRES TD9636_LAT TD9636_LON TD9636_STAGE TD9636_WIND TD9636_PRES TD9635_LAT TD9635_LON TD9635_WIND TD9635_PRES TD9635_ROCI NEUMANN_LAT NEUMANN_LON NEUMANN_CLASS NEUMANN_WIND NEUMANN_PRES MLC_LAT MLC_LON MLC_CLASS MLC_WIND MLC_PRES USA_GUST BOM_GUST BOM_GUST_PER REUNION_GUST REUNION_GUST_PER USA_SEAHGT USA_SEARAD_NE USA_SEARAD_SE USA_SEARAD_SW USA_SEARAD_NW STORM_SPEED STORM_DIR
1973123N25298 1973 49 NA NA NOT_NAMED 1973-05-02 12:00:00 TS 25.0000 -62.5000 20 hurdat_atl main 804 804 O_____________ hurdat_atl AL021973 25.0000 -62.5000 TD 20 -1 10 54
1973123N25298 1973 49 NA NA NOT_NAMED 1973-05-02 15:00:00 TS 25.3004 -62.0380 main 856 856 P_____________ AL021973 25.3004 -62.0380 TD 20 -1 10 54
1973123N25298 1973 49 NA NA NOT_NAMED 1973-05-02 18:00:00 TS 25.6000 -61.6000 20 hurdat_atl main 904 904 O_____________ hurdat_atl AL021973 25.6000 -61.6000 TD 20 -1 10 52
1973123N25298 1973 49 NA NA NOT_NAMED 1973-05-02 21:00:00 TS 25.8998 -61.1997 main 952 952 P_____________ AL021973 25.8998 -61.1997 TD 22 -1 9 50
1973123N25298 1973 49 NA NA NOT_NAMED 1973-05-03 00:00:00 TS 26.2000 -60.8000 25 hurdat_atl main 1001 1001 O_____________ hurdat_atl AL021973 26.2000 -60.8000 TD 25 -1 10 52
1973123N25298 1973 49 NA NA NOT_NAMED 1973-05-03 03:00:00 TS 26.4924 -60.3572 main 1050 1050 P_____________ AL021973 26.4924 -60.3572 TD 25 -1 10 53
1973123N25298 1973 49 NA NA NOT_NAMED 1973-05-03 06:00:00 TS 26.8000 -59.9000 25 hurdat_atl main 1105 1105 O_____________ hurdat_atl AL021973 26.8000 -59.9000 TD 25 -1 10 49
1973123N25298 1973 49 NA NA NOT_NAMED 1973-05-03 09:00:00 TS 27.1720 -59.4800 main 1164 1164 P_____________ AL021973 27.1720 -59.4800 TD 25 -1 11 49
1973123N25298 1973 49 NA NA NOT_NAMED 1973-05-03 12:00:00 TS 27.5000 -59.0000 25 hurdat_atl main 1220 1220 O_____________ hurdat_atl AL021973 27.5000 -59.0000 TD 25 -1 11 63
1973123N25298 1973 49 NA NA NOT_NAMED 1973-05-03 15:00:00 TS 27.6727 -58.3719 main 1273 1273 P_____________ AL021973 27.6727 -58.3719 TD 25 -1 12 75
1973123N25298 1973 49 NA NA NOT_NAMED 1973-05-03 18:00:00 TS 27.8000 -57.7000 25 hurdat_atl main 1324 1324 O_____________ hurdat_atl AL021973 27.8000 -57.7000 TD 25 -1 12 74
1973123N25298 1973 49 NA NA NOT_NAMED 1973-05-03 21:00:00 TS 27.9921 -57.0924 main 1379 1379 P_____________ AL021973 27.9921 -57.0924 TD 25 -1 11 69
1973123N25298 1973 49 NA NA NOT_NAMED 1973-05-04 00:00:00 TS 28.2000 -56.5000 25 hurdat_atl main 1434 1434 O_____________ hurdat_atl AL021973 28.2000 -56.5000 TD 25 -1 11 69
1973123N25298 1973 49 NA NA NOT_NAMED 1973-05-04 03:00:00 TS 28.3996 -55.9072 main 1491 1491 P_____________ AL021973 28.3996 -55.9072 TD 25 -1 11 69
1973123N25298 1973 49 NA NA NOT_NAMED 1973-05-04 06:00:00 TS 28.6000 -55.3000 25 hurdat_atl main 1548 1548 O_____________ hurdat_atl AL021973 28.6000 -55.3000 TD 25 -1 11 69
1973123N25298 1973 49 NA NA NOT_NAMED 1973-05-04 09:00:00 TS 28.8142 -54.6949 main 1605 1605 P_____________ AL021973 28.8142 -54.6949 TD 25 -1 12 71
1973123N25298 1973 49 NA NA NOT_NAMED 1973-05-04 12:00:00 TS 29.0000 -54.0000 25 hurdat_atl main 1670 1670 O_____________ hurdat_atl AL021973 29.0000 -54.0000 TD 25 -1 14 78
1973123N25298 1973 49 NA NA NOT_NAMED 1973-05-04 15:00:00 TS 29.1077 -53.1294 main 1743 1743 P_____________ AL021973 29.1077 -53.1294 TD 25 -1 16 83
1973123N25298 1973 49 NA NA NOT_NAMED 1973-05-04 18:00:00 TS 29.2000 -52.2000 25 hurdat_atl main 1817 1817 O_____________ hurdat_atl AL021973 29.2000 -52.2000 TD 25 -1 16 81
1973123N25298 1973 49 NA NA NOT_NAMED 1973-05-04 21:00:00 TS 29.3493 -51.3426 main 1893 1893 P_____________ AL021973 29.3493 -51.3426 TD 22 -1 15 79
1973123N25298 1973 49 NA NA NOT_NAMED 1973-05-05 00:00:00 TS 29.5000 -50.5000 20 hurdat_atl main 1918 1911 O_____________ hurdat_atl AL021973 29.5000 -50.5000 TD 20 -1 15 80
1973123N25298 1973 49 NA NA NOT_NAMED 1973-05-05 03:00:00 TS 29.5993 -49.6569 main 1916 1913 P_____________ AL021973 29.5993 -49.6569 TD 20 -1 15 82
1973123N25298 1973 49 NA NA NOT_NAMED 1973-05-05 06:00:00 TS 29.7000 -48.8000 20 hurdat_atl main 1919 1915 O_____________ hurdat_atl AL021973 29.7000 -48.8000 TD 20 -1 15 81
1973123N25298 1973 49 NA NA NOT_NAMED 1973-05-05 09:00:00 TS 29.8389 -47.9109 main 1925 1916 P_____________ AL021973 29.8389 -47.9109 TD 20 -1 16 79
1973123N25298 1973 49 NA NA NOT_NAMED 1973-05-05 12:00:00 TS 30.0000 -47.0000 20 hurdat_atl main 1923 O_____________ hurdat_atl AL021973 30.0000 -47.0000 TD 20 -1 16 78

IBTrACS Databaseについて

本データベースは、米国NOAAが公開する1842年以降の世界の熱帯低気圧のベストトラックデータアーカイブInternational Best Track Archive for Climate Stewardship (IBTrACS)を、ウェブで閲覧しやすい形式に変換したものです。

最終更新日:2021-12-03